sensor_id;sensor_type;location;lat;lon;timestamp;P1;durP1;ratioP1;P2;durP2;ratioP2
75798;SDS011;65035;44.726;37.764;2022-12-24T00:00:55;3.78;;;2.88;;
75798;SDS011;65035;44.726;37.764;2022-12-24T00:01:59;4.05;;;1.98;;
75798;SDS011;65035;44.726;37.764;2022-12-24T00:03:02;3.15;;;1.67;;
75798;SDS011;65035;44.726;37.764;2022-12-24T00:04:05;3.20;;;2.28;;
75798;SDS011;65035;44.726;37.764;2022-12-24T00:05:56;3.00;;;1.58;;
75798;SDS011;65035;44.726;37.764;2022-12-24T00:06:59;3.08;;;1.85;;
75798;SDS011;65035;44.726;37.764;2022-12-24T00:08:02;3.28;;;1.98;;
75798;SDS011;65035;44.726;37.764;2022-12-24T00:09:05;3.15;;;1.98;;
75798;SDS011;65035;44.726;37.764;2022-12-24T00:10:07;3.38;;;1.77;;
75798;SDS011;65035;44.726;37.764;2022-12-24T00:11:11;3.22;;;1.67;;
75798;SDS011;65035;44.726;37.764;2022-12-24T00:12:14;4.18;;;2.03;;
75798;SDS011;65035;44.726;37.764;2022-12-24T00:13:17;4.03;;;1.90;;
75798;SDS011;65035;44.726;37.764;2022-12-24T00:15:23;4.20;;;2.30;;
75798;SDS011;65035;44.726;37.764;2022-12-24T00:16:25;4.22;;;2.15;;
75798;SDS011;65035;44.726;37.764;2022-12-24T00:17:29;3.75;;;2.22;;
75798;SDS011;65035;44.726;37.764;2022-12-24T00:18:31;4.10;;;2.17;;
75798;SDS011;65035;44.726;37.764;2022-12-24T00:19:34;3.22;;;1.85;;
75798;SDS011;65035;44.726;37.764;2022-12-24T00:20:37;3.22;;;1.63;;
75798;SDS011;65035;44.726;37.764;2022-12-24T00:21:41;3.47;;;1.70;;
75798;SDS011;65035;44.726;37.764;2022-12-24T00:22:44;3.88;;;1.80;;
75798;SDS011;65035;44.726;37.764;2022-12-24T00:23:46;3.30;;;1.80;;
75798;SDS011;65035;44.726;37.764;2022-12-24T00:24:49;3.60;;;1.83;;
75798;SDS011;65035;44.726;37.764;2022-12-24T00:26:40;3.97;;;2.50;;
75798;SDS011;65035;44.726;37.764;2022-12-24T00:27:43;5.32;;;2.40;;
75798;SDS011;65035;44.726;37.764;2022-12-24T00:29:34;4.00;;;3.42;;
75798;SDS011;65035;44.726;37.764;2022-12-24T00:31:25;4.57;;;3.92;;
75798;SDS011;65035;44.726;37.764;2022-12-24T00:32:28;4.13;;;3.33;;
75798;SDS011;65035;44.726;37.764;2022-12-24T00:33:31;4.15;;;3.75;;
75798;SDS011;65035;44.726;37.764;2022-12-24T00:34:33;4.45;;;4.05;;
75798;SDS011;65035;44.726;37.764;2022-12-24T00:35:37;4.35;;;3.80;;
75798;SDS011;65035;44.726;37.764;2022-12-24T00:36:40;4.45;;;3.70;;
75798;SDS011;65035;44.726;37.764;2022-12-24T00:37:45;4.78;;;4.20;;
75798;SDS011;65035;44.726;37.764;2022-12-24T00:38:49;3.75;;;3.22;;
75798;SDS011;65035;44.726;37.764;2022-12-24T00:39:52;4.35;;;3.65;;
75798;SDS011;65035;44.726;37.764;2022-12-24T00:40:59;4.47;;;4.07;;
75798;SDS011;65035;44.726;37.764;2022-12-24T00:42:03;3.28;;;2.03;;
75798;SDS011;65035;44.726;37.764;2022-12-24T00:43:06;4.80;;;4.00;;
75798;SDS011;65035;44.726;37.764;2022-12-24T00:44:09;4.03;;;3.63;;
75798;SDS011;65035;44.726;37.764;2022-12-24T00:46:14;5.00;;;3.45;;
75798;SDS011;65035;44.726;37.764;2022-12-24T00:47:17;4.70;;;4.05;;
75798;SDS011;65035;44.726;37.764;2022-12-24T00:48:21;4.00;;;3.50;;
75798;SDS011;65035;44.726;37.764;2022-12-24T00:49:24;4.00;;;3.58;;
75798;SDS011;65035;44.726;37.764;2022-12-24T00:50:27;4.40;;;3.88;;
75798;SDS011;65035;44.726;37.764;2022-12-24T00:51:30;3.97;;;2.58;;
75798;SDS011;65035;44.726;37.764;2022-12-24T00:52:33;4.10;;;3.72;;
75798;SDS011;65035;44.726;37.764;2022-12-24T00:53:36;4.13;;;3.70;;
75798;SDS011;65035;44.726;37.764;2022-12-24T00:55:35;3.13;;;1.38;;
75798;SDS011;65035;44.726;37.764;2022-12-24T00:59:47;3.97;;;2.00;;
75798;SDS011;65035;44.726;37.764;2022-12-24T01:00:50;4.22;;;1.98;;
75798;SDS011;65035;44.726;37.764;2022-12-24T01:01:53;4.03;;;1.92;;
75798;SDS011;65035;44.726;37.764;2022-12-24T01:02:55;3.42;;;1.60;;
75798;SDS011;65035;44.726;37.764;2022-12-24T01:03:58;3.30;;;1.70;;
75798;SDS011;65035;44.726;37.764;2022-12-24T01:05:20;3.60;;;1.98;;
75798;SDS011;65035;44.726;37.764;2022-12-24T01:07:12;4.03;;;1.75;;
75798;SDS011;65035;44.726;37.764;2022-12-24T01:09:03;3.33;;;1.77;;
75798;SDS011;65035;44.726;37.764;2022-12-24T01:10:06;3.88;;;2.17;;
75798;SDS011;65035;44.726;37.764;2022-12-24T01:11:10;2.85;;;1.65;;
75798;SDS011;65035;44.726;37.764;2022-12-24T01:12:14;3.22;;;2.20;;
75798;SDS011;65035;44.726;37.764;2022-12-24T01:13:17;3.85;;;1.85;;
75798;SDS011;65035;44.726;37.764;2022-12-24T01:14:20;3.35;;;1.60;;
75798;SDS011;65035;44.726;37.764;2022-12-24T01:15:23;3.00;;;1.85;;
75798;SDS011;65035;44.726;37.764;2022-12-24T01:16:26;3.83;;;2.15;;
75798;SDS011;65035;44.726;37.764;2022-12-24T01:17:32;3.72;;;2.05;;
75798;SDS011;65035;44.726;37.764;2022-12-24T01:18:36;3.38;;;2.05;;
75798;SDS011;65035;44.726;37.764;2022-12-24T01:19:39;3.45;;;1.75;;
75798;SDS011;65035;44.726;37.764;2022-12-24T01:20:42;3.30;;;2.03;;
75798;SDS011;65035;44.726;37.764;2022-12-24T01:21:44;3.97;;;2.28;;
75798;SDS011;65035;44.726;37.764;2022-12-24T01:23:35;3.60;;;1.30;;
75798;SDS011;65035;44.726;37.764;2022-12-24T01:24:39;3.03;;;1.33;;
75798;SDS011;65035;44.726;37.764;2022-12-24T01:25:42;3.38;;;1.73;;
75798;SDS011;65035;44.726;37.764;2022-12-24T01:26:45;3.35;;;1.55;;
75798;SDS011;65035;44.726;37.764;2022-12-24T01:27:48;3.47;;;2.10;;
75798;SDS011;65035;44.726;37.764;2022-12-24T01:28:50;3.50;;;3.13;;
75798;SDS011;65035;44.726;37.764;2022-12-24T01:29:55;3.00;;;1.42;;
75798;SDS011;65035;44.726;37.764;2022-12-24T01:30:58;3.65;;;1.60;;
75798;SDS011;65035;44.726;37.764;2022-12-24T01:32:01;3.92;;;1.60;;
75798;SDS011;65035;44.726;37.764;2022-12-24T01:33:04;3.95;;;3.53;;
75798;SDS011;65035;44.726;37.764;2022-12-24T01:34:07;3.97;;;3.25;;
75798;SDS011;65035;44.726;37.764;2022-12-24T01:35:10;5.00;;;1.27;;
75798;SDS011;65035;44.726;37.764;2022-12-24T01:37:16;3.53;;;1.15;;
75798;SDS011;65035;44.726;37.764;2022-12-24T01:38:18;4.72;;;1.67;;
75798;SDS011;65035;44.726;37.764;2022-12-24T01:39:21;4.30;;;2.53;;
75798;SDS011;65035;44.726;37.764;2022-12-24T01:40:25;3.25;;;1.42;;
75798;SDS011;65035;44.726;37.764;2022-12-24T01:41:46;3.20;;;1.73;;
75798;SDS011;65035;44.726;37.764;2022-12-24T01:43:14;3.88;;;2.78;;
75798;SDS011;65035;44.726;37.764;2022-12-24T01:44:26;3.78;;;1.60;;
75798;SDS011;65035;44.726;37.764;2022-12-24T01:45:41;3.10;;;1.73;;
75798;SDS011;65035;44.726;37.764;2022-12-24T01:46:44;3.35;;;1.40;;
75798;SDS011;65035;44.726;37.764;2022-12-24T01:47:48;3.40;;;1.85;;
75798;SDS011;65035;44.726;37.764;2022-12-24T01:49:58;4.07;;;2.10;;
75798;SDS011;65035;44.726;37.764;2022-12-24T01:52:15;3.92;;;3.03;;
75798;SDS011;65035;44.726;37.764;2022-12-24T01:53:22;3.10;;;1.77;;
75798;SDS011;65035;44.726;37.764;2022-12-24T01:54:33;2.97;;;1.33;;
75798;SDS011;65035;44.726;37.764;2022-12-24T01:55:38;2.83;;;1.50;;
75798;SDS011;65035;44.726;37.764;2022-12-24T01:56:44;2.78;;;1.50;;
75798;SDS011;65035;44.726;37.764;2022-12-24T01:57:51;3.08;;;1.48;;
75798;SDS011;65035;44.726;37.764;2022-12-24T01:58:59;2.38;;;1.15;;
75798;SDS011;65035;44.726;37.764;2022-12-24T02:00:08;2.95;;;1.60;;
75798;SDS011;65035;44.726;37.764;2022-12-24T02:01:13;3.72;;;1.65;;
75798;SDS011;65035;44.726;37.764;2022-12-24T02:02:16;3.88;;;1.70;;
75798;SDS011;65035;44.726;37.764;2022-12-24T02:03:20;4.78;;;3.08;;
75798;SDS011;65035;44.726;37.764;2022-12-24T02:04:25;3.08;;;1.63;;
75798;SDS011;65035;44.726;37.764;2022-12-24T02:05:41;3.13;;;1.30;;
75798;SDS011;65035;44.726;37.764;2022-12-24T02:06:51;3.10;;;1.48;;
75798;SDS011;65035;44.726;37.764;2022-12-24T02:07:54;3.38;;;1.58;;
75798;SDS011;65035;44.726;37.764;2022-12-24T02:08:57;2.83;;;1.33;;
75798;SDS011;65035;44.726;37.764;2022-12-24T02:10:00;4.00;;;3.50;;
75798;SDS011;65035;44.726;37.764;2022-12-24T02:11:23;3.53;;;1.67;;
75798;SDS011;65035;44.726;37.764;2022-12-24T02:12:27;3.42;;;1.67;;
75798;SDS011;65035;44.726;37.764;2022-12-24T02:13:32;4.30;;;3.38;;
75798;SDS011;65035;44.726;37.764;2022-12-24T02:14:35;3.35;;;3.05;;
75798;SDS011;65035;44.726;37.764;2022-12-24T02:21:21;3.15;;;1.33;;
75798;SDS011;65035;44.726;37.764;2022-12-24T02:28:35;2.55;;;1.30;;
75798;SDS011;65035;44.726;37.764;2022-12-24T02:31:13;4.15;;;2.95;;
75798;SDS011;65035;44.726;37.764;2022-12-24T02:32:54;3.10;;;1.38;;
75798;SDS011;65035;44.726;37.764;2022-12-24T02:34:25;2.78;;;1.10;;
75798;SDS011;65035;44.726;37.764;2022-12-24T02:37:04;3.40;;;1.30;;
75798;SDS011;65035;44.726;37.764;2022-12-24T02:39:45;3.45;;;2.88;;
75798;SDS011;65035;44.726;37.764;2022-12-24T02:41:30;3.20;;;1.65;;
75798;SDS011;65035;44.726;37.764;2022-12-24T02:42:28;3.13;;;1.55;;
75798;SDS011;65035;44.726;37.764;2022-12-24T02:43:38;3.05;;;1.38;;
75798;SDS011;65035;44.726;37.764;2022-12-24T02:44:51;5.68;;;1.25;;
75798;SDS011;65035;44.726;37.764;2022-12-24T02:45:58;3.13;;;1.67;;
75798;SDS011;65035;44.726;37.764;2022-12-24T02:47:05;2.90;;;1.40;;
75798;SDS011;65035;44.726;37.764;2022-12-24T02:48:11;3.70;;;1.38;;
75798;SDS011;65035;44.726;37.764;2022-12-24T02:49:16;2.75;;;1.40;;
75798;SDS011;65035;44.726;37.764;2022-12-24T02:50:19;3.88;;;1.75;;
75798;SDS011;65035;44.726;37.764;2022-12-24T02:51:22;2.60;;;1.38;;
75798;SDS011;65035;44.726;37.764;2022-12-24T02:52:36;2.67;;;1.48;;
75798;SDS011;65035;44.726;37.764;2022-12-24T02:53:44;3.38;;;1.90;;
75798;SDS011;65035;44.726;37.764;2022-12-24T02:57:20;3.67;;;3.28;;
75798;SDS011;65035;44.726;37.764;2022-12-24T03:00:23;3.58;;;2.88;;
75798;SDS011;65035;44.726;37.764;2022-12-24T03:01:37;4.07;;;3.72;;
75798;SDS011;65035;44.726;37.764;2022-12-24T03:03:00;3.55;;;3.25;;
75798;SDS011;65035;44.726;37.764;2022-12-24T03:04:41;5.22;;;3.58;;
75798;SDS011;65035;44.726;37.764;2022-12-24T03:07:49;3.03;;;1.17;;
75798;SDS011;65035;44.726;37.764;2022-12-24T03:09:26;3.67;;;3.22;;
75798;SDS011;65035;44.726;37.764;2022-12-24T03:11:42;3.50;;;2.90;;
75798;SDS011;65035;44.726;37.764;2022-12-24T03:12:53;4.43;;;3.63;;
75798;SDS011;65035;44.726;37.764;2022-12-24T03:14:01;3.28;;;2.88;;
75798;SDS011;65035;44.726;37.764;2022-12-24T03:15:06;3.35;;;3.05;;
75798;SDS011;65035;44.726;37.764;2022-12-24T03:16:15;3.15;;;2.85;;
75798;SDS011;65035;44.726;37.764;2022-12-24T03:17:22;3.45;;;2.75;;
75798;SDS011;65035;44.726;37.764;2022-12-24T03:18:28;3.90;;;3.25;;
75798;SDS011;65035;44.726;37.764;2022-12-24T03:19:32;4.63;;;3.45;;
75798;SDS011;65035;44.726;37.764;2022-12-24T03:20:41;3.33;;;2.90;;
75798;SDS011;65035;44.726;37.764;2022-12-24T03:21:47;4.40;;;3.53;;
75798;SDS011;65035;44.726;37.764;2022-12-24T03:22:51;3.78;;;3.40;;
75798;SDS011;65035;44.726;37.764;2022-12-24T03:23:54;4.25;;;3.63;;
75798;SDS011;65035;44.726;37.764;2022-12-24T03:25:53;3.75;;;1.50;;
75798;SDS011;65035;44.726;37.764;2022-12-24T03:26:56;3.05;;;1.45;;
75798;SDS011;65035;44.726;37.764;2022-12-24T03:28:01;3.05;;;1.42;;
75798;SDS011;65035;44.726;37.764;2022-12-24T03:29:06;3.47;;;1.65;;
75798;SDS011;65035;44.726;37.764;2022-12-24T03:31:00;3.67;;;3.38;;
75798;SDS011;65035;44.726;37.764;2022-12-24T03:32:05;3.50;;;3.20;;
75798;SDS011;65035;44.726;37.764;2022-12-24T03:33:09;4.28;;;2.63;;
75798;SDS011;65035;44.726;37.764;2022-12-24T03:34:13;3.72;;;3.33;;
75798;SDS011;65035;44.726;37.764;2022-12-24T03:35:16;3.08;;;1.45;;
75798;SDS011;65035;44.726;37.764;2022-12-24T03:36:19;3.42;;;2.70;;
75798;SDS011;65035;44.726;37.764;2022-12-24T03:37:22;3.20;;;2.55;;
75798;SDS011;65035;44.726;37.764;2022-12-24T03:38:26;3.67;;;2.78;;
75798;SDS011;65035;44.726;37.764;2022-12-24T03:39:29;3.40;;;2.72;;
75798;SDS011;65035;44.726;37.764;2022-12-24T03:40:32;3.58;;;3.28;;
75798;SDS011;65035;44.726;37.764;2022-12-24T03:41:35;5.20;;;3.20;;
75798;SDS011;65035;44.726;37.764;2022-12-24T03:42:39;3.42;;;2.92;;
75798;SDS011;65035;44.726;37.764;2022-12-24T03:43:42;3.75;;;3.45;;
75798;SDS011;65035;44.726;37.764;2022-12-24T03:44:45;3.08;;;2.55;;
75798;SDS011;65035;44.726;37.764;2022-12-24T03:45:47;3.00;;;1.52;;
75798;SDS011;65035;44.726;37.764;2022-12-24T03:46:50;3.60;;;2.78;;
75798;SDS011;65035;44.726;37.764;2022-12-24T03:49:12;3.65;;;1.75;;
75798;SDS011;65035;44.726;37.764;2022-12-24T03:51:17;2.80;;;1.30;;
75798;SDS011;65035;44.726;37.764;2022-12-24T03:53:24;3.50;;;1.35;;
75798;SDS011;65035;44.726;37.764;2022-12-24T03:54:27;3.00;;;1.55;;
75798;SDS011;65035;44.726;37.764;2022-12-24T03:55:30;3.00;;;1.70;;
75798;SDS011;65035;44.726;37.764;2022-12-24T03:56:33;3.10;;;1.70;;
75798;SDS011;65035;44.726;37.764;2022-12-24T03:57:36;3.60;;;1.70;;
75798;SDS011;65035;44.726;37.764;2022-12-24T03:58:39;4.38;;;2.22;;
75798;SDS011;65035;44.726;37.764;2022-12-24T03:59:41;2.75;;;1.30;;
75798;SDS011;65035;44.726;37.764;2022-12-24T04:00:44;2.92;;;1.27;;
75798;SDS011;65035;44.726;37.764;2022-12-24T04:03:23;3.50;;;1.77;;
75798;SDS011;65035;44.726;37.764;2022-12-24T04:04:26;4.18;;;3.58;;
75798;SDS011;65035;44.726;37.764;2022-12-24T04:05:29;3.20;;;1.67;;
75798;SDS011;65035;44.726;37.764;2022-12-24T04:07:19;4.13;;;2.83;;
75798;SDS011;65035;44.726;37.764;2022-12-24T04:08:22;3.80;;;3.47;;
75798;SDS011;65035;44.726;37.764;2022-12-24T04:09:25;4.20;;;3.58;;
75798;SDS011;65035;44.726;37.764;2022-12-24T04:10:28;4.10;;;3.70;;
75798;SDS011;65035;44.726;37.764;2022-12-24T04:12:19;3.85;;;1.77;;
75798;SDS011;65035;44.726;37.764;2022-12-24T04:13:21;3.17;;;1.50;;
75798;SDS011;65035;44.726;37.764;2022-12-24T04:14:24;2.90;;;1.50;;
75798;SDS011;65035;44.726;37.764;2022-12-24T04:15:27;4.32;;;2.03;;
75798;SDS011;65035;44.726;37.764;2022-12-24T04:16:30;2.92;;;1.70;;
75798;SDS011;65035;44.726;37.764;2022-12-24T04:17:33;3.38;;;1.95;;
75798;SDS011;65035;44.726;37.764;2022-12-24T04:18:36;3.97;;;1.77;;
75798;SDS011;65035;44.726;37.764;2022-12-24T04:20:42;3.72;;;1.50;;
75798;SDS011;65035;44.726;37.764;2022-12-24T04:21:44;3.72;;;2.05;;
75798;SDS011;65035;44.726;37.764;2022-12-24T04:22:47;3.10;;;1.45;;
75798;SDS011;65035;44.726;37.764;2022-12-24T04:23:50;3.70;;;2.03;;
75798;SDS011;65035;44.726;37.764;2022-12-24T04:24:53;4.35;;;2.05;;
75798;SDS011;65035;44.726;37.764;2022-12-24T04:25:57;3.55;;;1.58;;
75798;SDS011;65035;44.726;37.764;2022-12-24T04:27:01;2.85;;;1.20;;
75798;SDS011;65035;44.726;37.764;2022-12-24T04:28:03;3.75;;;1.90;;
75798;SDS011;65035;44.726;37.764;2022-12-24T04:29:06;3.30;;;1.83;;
75798;SDS011;65035;44.726;37.764;2022-12-24T04:30:09;2.60;;;1.67;;
75798;SDS011;65035;44.726;37.764;2022-12-24T04:31:13;3.35;;;1.73;;
75798;SDS011;65035;44.726;37.764;2022-12-24T04:32:18;2.88;;;1.55;;
75798;SDS011;65035;44.726;37.764;2022-12-24T04:33:20;2.75;;;1.55;;
75798;SDS011;65035;44.726;37.764;2022-12-24T04:34:24;3.47;;;1.50;;
75798;SDS011;65035;44.726;37.764;2022-12-24T04:36:30;2.92;;;1.40;;
75798;SDS011;65035;44.726;37.764;2022-12-24T04:37:33;2.80;;;1.27;;
75798;SDS011;65035;44.726;37.764;2022-12-24T04:38:36;4.10;;;1.92;;
75798;SDS011;65035;44.726;37.764;2022-12-24T04:39:39;3.38;;;1.50;;
75798;SDS011;65035;44.726;37.764;2022-12-24T04:40:42;2.80;;;1.50;;
75798;SDS011;65035;44.726;37.764;2022-12-24T04:41:45;3.30;;;1.42;;
75798;SDS011;65035;44.726;37.764;2022-12-24T04:42:48;2.38;;;1.13;;
75798;SDS011;65035;44.726;37.764;2022-12-24T04:43:52;2.78;;;1.13;;
75798;SDS011;65035;44.726;37.764;2022-12-24T04:44:56;4.10;;;1.60;;
75798;SDS011;65035;44.726;37.764;2022-12-24T04:46:08;2.92;;;1.73;;
75798;SDS011;65035;44.726;37.764;2022-12-24T04:47:13;5.03;;;1.67;;
75798;SDS011;65035;44.726;37.764;2022-12-24T04:48:16;3.63;;;1.90;;
75798;SDS011;65035;44.726;37.764;2022-12-24T04:50:07;3.92;;;3.55;;
75798;SDS011;65035;44.726;37.764;2022-12-24T04:51:11;3.50;;;2.85;;
75798;SDS011;65035;44.726;37.764;2022-12-24T04:52:14;4.30;;;3.55;;
75798;SDS011;65035;44.726;37.764;2022-12-24T04:53:17;3.38;;;3.03;;
75798;SDS011;65035;44.726;37.764;2022-12-24T04:54:20;4.32;;;3.35;;
75798;SDS011;65035;44.726;37.764;2022-12-24T04:55:23;4.53;;;2.80;;
75798;SDS011;65035;44.726;37.764;2022-12-24T04:56:26;4.45;;;3.47;;
75798;SDS011;65035;44.726;37.764;2022-12-24T04:57:31;3.53;;;3.22;;
75798;SDS011;65035;44.726;37.764;2022-12-24T04:58:35;3.38;;;2.95;;
75798;SDS011;65035;44.726;37.764;2022-12-24T04:59:38;3.90;;;3.60;;
75798;SDS011;65035;44.726;37.764;2022-12-24T05:00:41;3.47;;;2.85;;
75798;SDS011;65035;44.726;37.764;2022-12-24T05:01:44;3.45;;;1.65;;
75798;SDS011;65035;44.726;37.764;2022-12-24T05:02:46;3.90;;;3.25;;
75798;SDS011;65035;44.726;37.764;2022-12-24T05:03:49;3.40;;;3.10;;
75798;SDS011;65035;44.726;37.764;2022-12-24T05:06:12;3.15;;;1.92;;
75798;SDS011;65035;44.726;37.764;2022-12-24T05:08:13;3.72;;;2.03;;
75798;SDS011;65035;44.726;37.764;2022-12-24T05:09:16;3.45;;;1.80;;
75798;SDS011;65035;44.726;37.764;2022-12-24T05:10:19;3.33;;;2.08;;
75798;SDS011;65035;44.726;37.764;2022-12-24T05:11:22;2.83;;;1.55;;
75798;SDS011;65035;44.726;37.764;2022-12-24T05:12:25;2.92;;;2.03;;
75798;SDS011;65035;44.726;37.764;2022-12-24T05:13:28;3.70;;;1.70;;
75798;SDS011;65035;44.726;37.764;2022-12-24T05:14:38;3.45;;;1.55;;
75798;SDS011;65035;44.726;37.764;2022-12-24T05:15:41;2.70;;;1.52;;
75798;SDS011;65035;44.726;37.764;2022-12-24T05:16:46;4.28;;;1.73;;
75798;SDS011;65035;44.726;37.764;2022-12-24T05:17:49;3.10;;;1.70;;
75798;SDS011;65035;44.726;37.764;2022-12-24T05:18:52;2.97;;;1.45;;
75798;SDS011;65035;44.726;37.764;2022-12-24T05:19:55;2.95;;;1.40;;
75798;SDS011;65035;44.726;37.764;2022-12-24T05:20:58;3.17;;;1.48;;
75798;SDS011;65035;44.726;37.764;2022-12-24T05:22:00;3.03;;;1.40;;
75798;SDS011;65035;44.726;37.764;2022-12-24T05:23:23;4.00;;;1.70;;
75798;SDS011;65035;44.726;37.764;2022-12-24T05:24:45;3.72;;;1.60;;
75798;SDS011;65035;44.726;37.764;2022-12-24T05:26:30;3.13;;;1.70;;
75798;SDS011;65035;44.726;37.764;2022-12-24T05:27:34;3.58;;;1.75;;
75798;SDS011;65035;44.726;37.764;2022-12-24T05:28:37;3.25;;;1.50;;
75798;SDS011;65035;44.726;37.764;2022-12-24T05:29:40;3.33;;;1.42;;
75798;SDS011;65035;44.726;37.764;2022-12-24T05:30:43;3.72;;;1.60;;
75798;SDS011;65035;44.726;37.764;2022-12-24T05:31:46;4.63;;;1.90;;
75798;SDS011;65035;44.726;37.764;2022-12-24T05:32:48;2.90;;;1.48;;
75798;SDS011;65035;44.726;37.764;2022-12-24T05:33:51;4.63;;;1.52;;
75798;SDS011;65035;44.726;37.764;2022-12-24T05:34:55;5.53;;;1.92;;
75798;SDS011;65035;44.726;37.764;2022-12-24T05:35:58;4.68;;;1.83;;
75798;SDS011;65035;44.726;37.764;2022-12-24T05:37:01;2.97;;;1.40;;
75798;SDS011;65035;44.726;37.764;2022-12-24T05:38:04;4.05;;;1.70;;
75798;SDS011;65035;44.726;37.764;2022-12-24T05:39:07;5.88;;;1.88;;
75798;SDS011;65035;44.726;37.764;2022-12-24T05:40:14;3.25;;;1.60;;
75798;SDS011;65035;44.726;37.764;2022-12-24T05:41:17;4.50;;;2.15;;
75798;SDS011;65035;44.726;37.764;2022-12-24T05:42:20;4.95;;;1.77;;
75798;SDS011;65035;44.726;37.764;2022-12-24T05:43:23;4.03;;;1.60;;
75798;SDS011;65035;44.726;37.764;2022-12-24T05:44:25;3.80;;;1.77;;
75798;SDS011;65035;44.726;37.764;2022-12-24T05:45:28;3.15;;;1.15;;
75798;SDS011;65035;44.726;37.764;2022-12-24T05:46:31;3.72;;;1.80;;
75798;SDS011;65035;44.726;37.764;2022-12-24T05:47:34;3.78;;;1.40;;
75798;SDS011;65035;44.726;37.764;2022-12-24T05:48:40;3.45;;;1.45;;
75798;SDS011;65035;44.726;37.764;2022-12-24T05:50:32;3.25;;;1.52;;
75798;SDS011;65035;44.726;37.764;2022-12-24T05:51:39;4.82;;;1.65;;
75798;SDS011;65035;44.726;37.764;2022-12-24T05:52:42;3.80;;;2.00;;
75798;SDS011;65035;44.726;37.764;2022-12-24T05:53:45;3.90;;;1.88;;
75798;SDS011;65035;44.726;37.764;2022-12-24T05:54:48;2.83;;;1.52;;
75798;SDS011;65035;44.726;37.764;2022-12-24T05:55:51;3.33;;;1.80;;
75798;SDS011;65035;44.726;37.764;2022-12-24T05:56:54;3.20;;;1.63;;
75798;SDS011;65035;44.726;37.764;2022-12-24T05:57:57;3.38;;;1.58;;
75798;SDS011;65035;44.726;37.764;2022-12-24T05:59:00;2.75;;;1.60;;
75798;SDS011;65035;44.726;37.764;2022-12-24T06:00:02;4.93;;;1.63;;
75798;SDS011;65035;44.726;37.764;2022-12-24T06:01:13;4.22;;;1.85;;
75798;SDS011;65035;44.726;37.764;2022-12-24T06:02:16;3.35;;;2.05;;
75798;SDS011;65035;44.726;37.764;2022-12-24T06:03:19;4.15;;;1.60;;
75798;SDS011;65035;44.726;37.764;2022-12-24T06:04:21;3.33;;;1.35;;
75798;SDS011;65035;44.726;37.764;2022-12-24T06:05:29;2.95;;;1.45;;
75798;SDS011;65035;44.726;37.764;2022-12-24T06:06:32;3.78;;;1.40;;
75798;SDS011;65035;44.726;37.764;2022-12-24T06:07:35;3.28;;;1.50;;
75798;SDS011;65035;44.726;37.764;2022-12-24T06:08:39;2.88;;;1.48;;
75798;SDS011;65035;44.726;37.764;2022-12-24T06:09:42;4.43;;;1.90;;
75798;SDS011;65035;44.726;37.764;2022-12-24T06:10:45;4.00;;;1.70;;
75798;SDS011;65035;44.726;37.764;2022-12-24T06:11:48;4.00;;;1.63;;
75798;SDS011;65035;44.726;37.764;2022-12-24T06:12:51;3.28;;;1.27;;
75798;SDS011;65035;44.726;37.764;2022-12-24T06:13:53;2.95;;;1.38;;
75798;SDS011;65035;44.726;37.764;2022-12-24T06:14:56;3.53;;;1.70;;
75798;SDS011;65035;44.726;37.764;2022-12-24T06:16:00;4.07;;;1.63;;
75798;SDS011;65035;44.726;37.764;2022-12-24T06:17:04;3.72;;;1.75;;
75798;SDS011;65035;44.726;37.764;2022-12-24T06:18:07;3.30;;;1.90;;
75798;SDS011;65035;44.726;37.764;2022-12-24T06:19:10;4.45;;;1.67;;
75798;SDS011;65035;44.726;37.764;2022-12-24T06:20:16;4.72;;;1.95;;
75798;SDS011;65035;44.726;37.764;2022-12-24T06:21:19;3.53;;;1.98;;
75798;SDS011;65035;44.726;37.764;2022-12-24T06:22:22;3.17;;;1.83;;
75798;SDS011;65035;44.726;37.764;2022-12-24T06:23:28;3.63;;;1.23;;
75798;SDS011;65035;44.726;37.764;2022-12-24T06:24:31;4.60;;;2.15;;
75798;SDS011;65035;44.726;37.764;2022-12-24T06:25:34;4.45;;;1.70;;
75798;SDS011;65035;44.726;37.764;2022-12-24T06:26:37;3.58;;;1.38;;
75798;SDS011;65035;44.726;37.764;2022-12-24T06:27:40;4.28;;;2.00;;
75798;SDS011;65035;44.726;37.764;2022-12-24T06:29:47;3.28;;;1.70;;
75798;SDS011;65035;44.726;37.764;2022-12-24T06:30:50;3.72;;;1.90;;
75798;SDS011;65035;44.726;37.764;2022-12-24T06:31:54;3.55;;;1.95;;
75798;SDS011;65035;44.726;37.764;2022-12-24T06:32:57;4.28;;;1.80;;
75798;SDS011;65035;44.726;37.764;2022-12-24T06:34:00;3.80;;;2.00;;
75798;SDS011;65035;44.726;37.764;2022-12-24T06:35:02;3.88;;;1.70;;
75798;SDS011;65035;44.726;37.764;2022-12-24T06:36:06;3.88;;;1.75;;
75798;SDS011;65035;44.726;37.764;2022-12-24T06:37:14;4.30;;;2.13;;
75798;SDS011;65035;44.726;37.764;2022-12-24T06:38:19;4.43;;;1.95;;
75798;SDS011;65035;44.726;37.764;2022-12-24T06:40:27;3.85;;;2.00;;
75798;SDS011;65035;44.726;37.764;2022-12-24T06:41:29;4.75;;;2.15;;
75798;SDS011;65035;44.726;37.764;2022-12-24T06:42:32;2.58;;;1.70;;
75798;SDS011;65035;44.726;37.764;2022-12-24T06:43:35;4.25;;;2.53;;
75798;SDS011;65035;44.726;37.764;2022-12-24T06:44:38;4.90;;;1.63;;
75798;SDS011;65035;44.726;37.764;2022-12-24T06:45:45;5.40;;;1.60;;
75798;SDS011;65035;44.726;37.764;2022-12-24T06:46:49;3.60;;;1.65;;
75798;SDS011;65035;44.726;37.764;2022-12-24T06:47:52;3.63;;;1.85;;
75798;SDS011;65035;44.726;37.764;2022-12-24T06:48:55;3.03;;;1.77;;
75798;SDS011;65035;44.726;37.764;2022-12-24T06:49:58;3.65;;;1.98;;
75798;SDS011;65035;44.726;37.764;2022-12-24T06:51:01;5.68;;;2.22;;
75798;SDS011;65035;44.726;37.764;2022-12-24T06:52:04;4.68;;;2.42;;
75798;SDS011;65035;44.726;37.764;2022-12-24T06:53:08;5.10;;;2.20;;
75798;SDS011;65035;44.726;37.764;2022-12-24T06:54:11;4.63;;;1.70;;
75798;SDS011;65035;44.726;37.764;2022-12-24T06:55:14;5.53;;;1.90;;
75798;SDS011;65035;44.726;37.764;2022-12-24T06:56:17;4.05;;;1.75;;
75798;SDS011;65035;44.726;37.764;2022-12-24T06:57:22;5.75;;;1.98;;
75798;SDS011;65035;44.726;37.764;2022-12-24T06:58:25;5.68;;;1.95;;
75798;SDS011;65035;44.726;37.764;2022-12-24T06:59:28;5.03;;;2.22;;
75798;SDS011;65035;44.726;37.764;2022-12-24T07:00:31;4.47;;;2.00;;
75798;SDS011;65035;44.726;37.764;2022-12-24T07:01:34;3.45;;;2.17;;
75798;SDS011;65035;44.726;37.764;2022-12-24T07:02:41;7.10;;;3.05;;
75798;SDS011;65035;44.726;37.764;2022-12-24T07:03:45;4.07;;;2.10;;
75798;SDS011;65035;44.726;37.764;2022-12-24T07:05:53;8.40;;;2.38;;
75798;SDS011;65035;44.726;37.764;2022-12-24T07:06:56;4.38;;;2.00;;
75798;SDS011;65035;44.726;37.764;2022-12-24T07:07:59;4.78;;;2.08;;
75798;SDS011;65035;44.726;37.764;2022-12-24T07:09:02;6.60;;;2.05;;
75798;SDS011;65035;44.726;37.764;2022-12-24T07:10:05;4.20;;;2.05;;
75798;SDS011;65035;44.726;37.764;2022-12-24T07:11:09;4.20;;;1.90;;
75798;SDS011;65035;44.726;37.764;2022-12-24T07:12:12;5.22;;;1.67;;
75798;SDS011;65035;44.726;37.764;2022-12-24T07:13:15;4.53;;;1.73;;
75798;SDS011;65035;44.726;37.764;2022-12-24T07:14:19;4.35;;;2.25;;
75798;SDS011;65035;44.726;37.764;2022-12-24T07:15:22;5.57;;;2.80;;
75798;SDS011;65035;44.726;37.764;2022-12-24T07:16:27;4.97;;;1.95;;
75798;SDS011;65035;44.726;37.764;2022-12-24T07:17:32;3.95;;;2.00;;
75798;SDS011;65035;44.726;37.764;2022-12-24T07:18:35;4.25;;;2.20;;
75798;SDS011;65035;44.726;37.764;2022-12-24T07:19:38;4.38;;;2.17;;
75798;SDS011;65035;44.726;37.764;2022-12-24T07:20:41;3.95;;;2.00;;
75798;SDS011;65035;44.726;37.764;2022-12-24T07:21:44;4.63;;;2.35;;